Billings, MT

9:45 AM MST on March 03, 2015 (GMT -0700)
Downtown Billings | Change Station
CLOSE
Current Station
Personal Weather Station
Location: Billings, MT
Elevation: 3127 ft
Nearby Weather Stations

Elev 3127 ft 45.78 °N, 108.50 °W | Updated 18 minutes ago

Mostly Cloudy
Mostly Cloudy
14.3 °F
Feels Like 14 °F
N
1.1
Wind Variable Wind from North
Gusts 4.0 mph

Today
High -- | Low -- °F
--% Chance of Precip.
Yesterday
High -- | Low -- °F
Precip. -- in
6:49 AM 6:03 PM
Waxing Gibbous, 96% visible
Pressure 30.31 in
Visibility 10.0 miles
Clouds Mostly Cloudy 3700 ft
Mostly Cloudy 9500 ft
Windchill 14 °F
Dew Point 2 °F
Humidity 58%
Rainfall -999.00 in
Snow Depth Not available.
UV 1 out of 12
Pollen .30 out of 12
Air Quality Not available.
Flu Activity Not available.
METAR KBIL 031553Z 06003KT 10SM BKN037 BKN095 M13/M19 A3013 RMK SNE16 SLP262 P0000 T11281194

More Conditions Fewer Conditions

Pressure 30.31 in
Visibility 10.0 miles
Clouds Mostly Cloudy 3700 ft
Mostly Cloudy 9500 ft
Windchill 14 °F
Dew Point 2 °F
Humidity 58%
Rainfall -999.00 in
Snow Depth Not available.
UV 1 out of 12
Pollen .30 out of 12
Air Quality Not available.
Flu Activity Not available.
METAR KBIL 031553Z 06003KT 10SM BKN037 BKN095 M13/M19 A3013 RMK SNE16 SLP262 P0000 T11281194

More Conditions Fewer Conditions

10-Day Weather Forecast

Almanac

Astronomy

Mar. 03, 2015 Rise Set
Actual Time
Civil Twilight
Nautical Twilight
Astronomical Twilight
Moon
Length of Visible Light
Length of Day
Tomorrow will be .
, % of the Moon is Illuminated

Today's Extremes

State Highs State Lows

Community

WunderPhotos

Upload Photos

1,802,170 photos uploaded!

WunderBlogs® & News

Nearby

Air Quality

  Air Quality AQ Index Pollutant
Not available.

Snow Depth

Station Depth Elevation

Earthquake Activity

City Distance Mag. Time & Date
Minimum magnitude displayed is 2.5.

Coastal Water Temperatures

Place Temperature

Nearby Weather Stations